Hampton, South Carolina
Current Conditions -  °F | °C
As of 1:35 PM on Monday 26 Jan 2015 (Local Time) from KAQX Reporting Station
Overcast Overcast  
Wind Chill: 55°   Ceiling: 4800
Heat Index: 55°   Visibility: 10mi
Dew Point: 39°   Wind: 9mph
Humidity: 54%   Direction: 270°W
Pressure: 29.67"   Gusts: 18mph
Location:  32.88°N, 81.13°W
Report Text: KAQX 261835Z AUTO 27008G16KT 230V330 10SM SCT040 BKN048 OVC055 13/04 A2967 RMK AO2
Loading
Personal Weather Stations






























Interactive Weather Map New forecast layout! Learn more

10-Day Weather Forecast

Advertisements
Track Severe Weather on mobile